Gateway, Arkansas
Current Conditions -  °F | °C
As of 2:57 PM on Thursday 18 Dec 2014 (Local Time) from KROG Reporting Station
Haze Haze  
Wind Chill:   Ceiling: 600
Heat Index:   Visibility: 4mi
Dew Point:   Wind: 0mph
Humidity: 93%   Direction: NA
Pressure: 30.15"   Gusts: NA
Location:  36.49°N, 93.93°W
Report Text: KROG 182057Z 00000KT 4SM BR OVC006 04/03 A3015 RMK AO2 SLP215 6//// T00390028 55003
Loading
Personal Weather Stations






























Interactive Weather Map New forecast layout! Learn more

10-Day Weather Forecast

Advertisements
Track Severe Weather on mobile